| time (UTC) | temp C | wind direction | speed KPH | gust KPH | rain 1hr cm | rain 24hr cm | rain mn cm | humidity % | barometer mb |
| 20260503005516 | 16 | 315 | 0.0 | 4.8 | 0.00 | 2.82 | 2.82 | 39 | 1014.8 |
| 20260503004520 | 16 | 270 | 1.6 | 4.8 | 0.00 | 2.82 | 2.82 | 39 | 1014.8 |
| 20260503003522 | 16 | 273 | 1.6 | 4.8 | 0.00 | 2.82 | 2.82 | 38 | 1014.8 |
| 20260503002526 | 16 | 267 | 3.2 | 4.8 | 0.00 | 2.82 | 2.82 | 38 | 1014.8 |
| 20260503001529 | 17 | 273 | 3.2 | 8.0 | 0.00 | 2.82 | 2.82 | 37 | 1015.0 |
| 20260503000531 | 17 | 248 | 1.6 | 4.8 | 0.00 | 2.82 | 2.82 | 37 | 1015.0 |
| 20260502235516 | 17 | 312 | 1.6 | 4.8 | 0.00 | 2.82 | 2.82 | 35 | 1015.3 |
| 20260502234519 | 17 | 304 | 4.8 | 9.7 | 0.00 | 2.82 | 2.82 | 35 | 1015.3 |
| 20260502233523 | 18 | 280 | 3.2 | 6.4 | 0.00 | 2.82 | 2.82 | 34 | 1015.4 |
| 20260502232526 | 19 | 282 | 4.8 | 8.0 | 0.00 | 2.82 | 2.82 | 32 | 1015.5 |
| 20260502231528 | 20 | 303 | 8.0 | 16.1 | 0.00 | 2.82 | 2.82 | 30 | 1015.5 |
| 20260502230531 | 21 | 259 | 4.8 | 9.7 | 0.00 | 2.82 | 2.82 | 30 | 1015.6 |
| 20260502225516 | 21 | 318 | 6.4 | 8.0 | 0.00 | 2.82 | 2.82 | 30 | 1015.7 |
| 20260502224519 | 21 | 259 | 6.4 | 12.9 | 0.00 | 2.82 | 2.82 | 29 | 1015.8 |
| 20260502223522 | 20 | 263 | 4.8 | 9.7 | 0.00 | 2.82 | 2.82 | 31 | 1015.8 |
| 20260502222519 | 20 | 299 | 4.8 | 9.7 | 0.00 | 2.82 | 2.82 | 32 | 1015.9 |
| 20260502221516 | 21 | 330 | 8.0 | 14.5 | 0.00 | 2.82 | 2.82 | 30 | 1015.9 |
| 20260502220530 | 21 | 307 | 4.8 | 12.9 | 0.00 | 2.82 | 2.82 | 31 | 1016.1 |
| 20260502215515 | 20 | 273 | 3.2 | 4.8 | 0.00 | 2.82 | 2.82 | 31 | 1016.3 |
| 20260502214518 | 20 | 276 | 4.8 | 8.0 | 0.00 | 2.82 | 2.82 | 32 | 1016.4 |
| 20260502213521 | 20 | 288 | 8.0 | 9.7 | 0.00 | 2.82 | 2.82 | 30 | 1016.4 |
| 20260502212524 | 20 | 229 | 6.4 | 16.1 | 0.00 | 2.82 | 2.82 | 31 | 1016.5 |
| 20260502211526 | 20 | 244 | 6.4 | 9.7 | 0.00 | 2.82 | 2.82 | 31 | 1016.7 |
| 20260502210528 | 19 | 310 | 6.4 | 11.3 | 0.00 | 2.82 | 2.82 | 32 | 1017.0 |
| 20260502205531 | 19 | 272 | 4.8 | 8.0 | 0.00 | 2.82 | 2.82 | 32 | 1017.2 |
| 20260502204517 | 18 | 285 | 4.8 | 11.3 | 0.00 | 2.82 | 2.82 | 32 | 1017.3 |
| 20260502203519 | 18 | 247 | 6.4 | 11.3 | 0.00 | 2.82 | 2.82 | 32 | 1017.5 |
| 20260502202522 | 18 | 283 | 4.8 | 9.7 | 2.82 | 2.82 | 2.82 | 32 | 1017.6 |
| 20260502201525 | 17 | 271 | 3.2 | 8.0 | 2.82 | 2.82 | 2.82 | 33 | 1017.7 |
| 20260502200528 | 18 | 240 | 4.8 | 8.0 | 2.82 | 2.82 | 2.82 | 33 | 1017.9 |
| 20260502195531 | 18 | 341 | 4.8 | 12.9 | 2.82 | 2.82 | 2.82 | 33 | 1018.3 |
| 20260502194516 | 18 | 290 | 6.4 | 11.3 | 2.82 | 2.82 | 2.82 | 34 | 1018.3 |
| 20260502193519 | 17 | 295 | 6.4 | 12.9 | 2.82 | 2.82 | 2.82 | 34 | 1018.4 |
| 20260502192521 | 18 | 219 | 4.8 | 8.0 | 0.00 | 0.00 | 0.00 | 34 | 1018.5 |
| 20260502191518 | 18 | 245 | 6.4 | 12.9 | 0.00 | 0.00 | 0.00 | 33 | 1018.9 |
| 20260502190515 | 18 | 287 | 9.7 | 14.5 | 0.00 | 0.00 | 0.00 | 33 | 1019.1 |
| 20260502185530 | 17 | 306 | 6.4 | 14.5 | 0.00 | 0.00 | 0.00 | 34 | 1019.2 |
| 20260502184533 | 17 | 281 | 8.0 | 11.3 | 0.00 | 0.00 | 0.00 | 34 | 1019.4 |
| 20260502183518 | 17 | 292 | 4.8 | 9.7 | 0.00 | 0.00 | 0.00 | 35 | 1019.5 |
| 20260502182520 | 17 | 305 | 6.4 | 11.3 | 0.00 | 0.00 | 0.00 | 34 | 1019.5 |
| 20260502181524 | 17 | 264 | 4.8 | 9.7 | 0.00 | 0.00 | 0.00 | 35 | 1019.7 |
| 20260502180527 | 17 | 215 | 4.8 | 8.0 | 0.00 | 0.00 | 0.00 | 35 | 1019.7 |
| 20260502163517 | 15 | 276 | 6.4 | 8.0 | 0.00 | 0.00 | 0.00 | 35 | 1020.7 |
| 20260502162520 | 15 | 278 | 6.4 | 11.3 | 0.00 | 0.00 | 0.00 | 38 | 1020.8 |
| 20260502161523 | 16 | 256 | 6.4 | 9.7 | 0.00 | 0.00 | 0.00 | 37 | 1020.8 |
| 20260502160519 | 14 | 243 | 4.8 | 6.4 | 0.00 | 0.00 | 0.00 | 39 | 1021.0 |
| 20260502151522 | 14 | 339 | 6.4 | 9.7 | 0.00 | 0.00 | 0.00 | 42 | 1021.0 |
| 20260502150525 | 13 | 313 | 8.0 | 14.5 | 0.00 | 0.00 | 0.00 | 41 | 1021.2 |
| 20260502130522 | 1 | 304 | 0.0 | 1.6 | 0.00 | 0.00 | 0.00 | 99 | 1021.7 |
| 20260502123531 | -1 | 0.0 | 0.0 | 0.00 | 0.00 | 0.00 | 99 | 1021.7 | |
| 20260502122516 | -1 | 0.0 | 0.0 | 0.00 | 0.00 | 0.00 | 99 | 1021.7 | |
| 20260502121519 | -2 | 0.0 | 0.0 | 0.00 | 0.00 | 0.00 | 99 | 1021.9 | |
| 20260502120522 | -2 | 0.0 | 0.0 | 0.00 | 0.00 | 0.00 | 99 | 1021.7 | |
| 20260502115525 | -2 | 0.0 | 0.0 | 0.00 | 0.00 | 0.00 | 99 | 1021.7 | |
| 20260502114528 | -3 | 0.0 | 0.0 | 0.00 | 0.00 | 0.00 | 99 | 1021.6 | |
| 20260502113531 | -3 | 0.0 | 0.0 | 0.00 | 0.00 | 0.00 | 99 | 1021.5 | |
| 20260502112516 | -3 | 0.0 | 0.0 | 0.00 | 0.00 | 0.00 | 99 | 1021.5 | |
| 20260502111519 | -3 | 0.0 | 0.0 | 0.00 | 0.00 | 0.00 | 99 | 1021.5 | |
| 20260502110522 | -3 | 0.0 | 0.0 | 0.00 | 0.00 | 0.00 | 99 | 1021.5 | |
| 20260502105525 | -3 | 0.0 | 0.0 | 0.00 | 0.00 | 0.00 | 99 | 1021.5 | |
| 20260502104528 | -3 | 0.0 | 0.0 | 0.00 | 0.00 | 0.00 | 99 | 1021.5 | |
| 20260502103531 | -3 | 0.0 | 0.0 | 0.00 | 0.00 | 0.00 | 99 | 1021.5 | |
| 20260502102515 | -3 | 0.0 | 0.0 | 0.00 | 0.00 | 0.00 | 99 | 1021.5 | |
| 20260502101518 | -3 | 0.0 | 0.0 | 0.00 | 0.00 | 0.00 | 99 | 1021.5 | |
| 20260502100521 | -3 | 0.0 | 0.0 | 0.00 | 0.00 | 0.00 | 99 | 1021.5 | |
| 20260502091518 | -2 | 0.0 | 0.0 | 0.00 | 0.00 | 0.00 | 99 | 1021.5 | |
| 20260502090520 | -2 | 0.0 | 0.0 | 0.00 | 0.00 | 0.00 | 99 | 1021.4 | |
| 20260502071532 | -1 | 0.0 | 0.0 | 0.00 | 0.00 | 0.00 | 92 | 1021.7 | |
| 20260502070517 | -1 | 0.0 | 0.0 | 0.00 | 0.00 | 0.00 | 92 | 1021.7 | |
| 20260502065520 | -1 | 0.0 | 0.0 | 0.00 | 0.00 | 0.00 | 92 | 1021.7 | |
| 20260502064523 | -1 | 0.0 | 0.0 | 0.00 | 0.00 | 0.00 | 90 | 1021.7 | |
| 20260502063520 | -1 | 0.0 | 0.0 | 0.00 | 0.00 | 0.00 | 90 | 1021.7 | |
| 20260502062517 | -1 | 0.0 | 0.0 | 0.00 | 0.00 | 0.00 | 89 | 1021.7 | |
| 20260502061532 | -1 | 0.0 | 0.0 | 0.00 | 0.00 | 0.00 | 88 | 1021.7 | |
| 20260502060517 | -1 | 0.0 | 0.0 | 0.00 | 0.00 | 0.00 | 85 | 1021.7 | |
| 20260502055520 | 0 | 0.0 | 0.0 | 0.00 | 0.00 | 0.00 | 84 | 1021.7 | |
| 20260502054523 | 0 | 0.0 | 0.0 | 0.00 | 0.00 | 0.00 | 84 | 1021.7 | |
| 20260502053526 | 0 | 0.0 | 0.0 | 0.00 | 0.00 | 0.00 | 82 | 1021.7 | |
| 20260502052529 | 0 | 0.0 | 0.0 | 0.00 | 0.00 | 0.00 | 82 | 1021.7 | |
| 20260502051532 | 0 | 0.0 | 0.0 | 0.00 | 0.00 | 0.00 | 81 | 1021.7 | |
| 20260502050517 | 0 | 0.0 | 0.0 | 0.00 | 0.00 | 0.00 | 80 | 1021.5 | |
| 20260502045519 | 0 | 0.0 | 0.0 | 0.00 | 0.00 | 0.00 | 79 | 1021.5 | |
| 20260502044522 | 0 | 0.0 | 0.0 | 0.00 | 0.00 | 0.00 | 78 | 1021.4 | |
| 20260502043525 | 0 | 0.0 | 0.0 | 0.00 | 0.00 | 0.00 | 76 | 1021.4 | |
| 20260502042528 | 0 | 0.0 | 0.0 | 0.00 | 0.00 | 0.00 | 76 | 1021.5 | |
| 20260502041531 | 1 | 0.0 | 0.0 | 0.00 | 0.00 | 0.00 | 74 | 1021.5 | |
| 20260502040518 | 1 | 0.0 | 0.0 | 0.00 | 0.00 | 0.00 | 73 | 1021.5 | |
| 20260502035518 | 1 | 0.0 | 0.0 | 0.00 | 0.00 | 0.00 | 72 | 1021.5 | |
| 20260502034521 | 2 | 0.0 | 0.0 | 0.00 | 0.00 | 0.00 | 71 | 1021.5 | |
| 20260502033524 | 2 | 0.0 | 0.0 | 0.00 | 0.00 | 0.00 | 71 | 1021.5 | |
| 20260502032521 | 2 | 0.0 | 0.0 | 0.00 | 0.00 | 0.00 | 67 | 1021.4 | |
| 20260502031518 | 3 | 0.0 | 0.0 | 0.00 | 0.00 | 0.00 | 65 | 1021.4 | |
| 20260502030533 | 3 | 0.0 | 0.0 | 0.00 | 0.00 | 0.00 | 65 | 1021.4 | |
| 20260502025518 | 3 | 0.0 | 0.0 | 0.00 | 0.00 | 0.00 | 63 | 1021.2 | |
| 20260502024521 | 4 | 0.0 | 0.0 | 0.00 | 0.00 | 0.00 | 60 | 1021.2 | |
| 20260502023524 | 4 | 0.0 | 0.0 | 0.00 | 0.00 | 0.00 | 61 | 1021.2 | |
| 20260502022527 | 5 | 0.0 | 0.0 | 0.00 | 0.00 | 0.00 | 58 | 1021.2 | |
| 20260502021530 | 5 | 0.0 | 0.0 | 0.00 | 0.00 | 0.00 | 55 | 1021.2 | |
| 20260502020533 | 5 | 0.0 | 0.0 | 0.00 | 0.00 | 0.00 | 54 | 1021.0 | |
| 20260502015518 | 6 | 0.0 | 0.0 | 0.00 | 0.00 | 0.00 | 57 | 1020.8 | |
| 20260502014520 | 6 | 0.0 | 0.0 | 0.00 | 0.00 | 0.00 | 56 | 1020.8 | |
| 20260502013523 | 6 | 0.0 | 0.0 | 0.00 | 0.00 | 0.00 | 52 | 1020.7 | |
| 20260502012526 | 7 | 0.0 | 0.0 | 0.00 | 0.00 | 0.00 | 52 | 1020.7 | |
| 20260502011529 | 7 | 0.0 | 0.0 | 0.00 | 0.00 | 0.00 | 48 | 1020.6 | |
| 20260502010532 | 8 | 0.0 | 0.0 | 0.00 | 0.00 | 0.00 | 43 | 1020.5 |